»·PEaware :: ASA526 KPHX-KABQ

ASA526 :: KPHX-KABQ

FLIGHT INFORMATION

Flight Status: Arrived
Operator:
Alaska Airlines
More flights by this operator :: More flights under this callsign
Pilot: Pratham R. (19019)
Aircraft: AIRBUS A319
(A319)
More flights by this aircraft type
Origin: KPHX Phoenix Sky Harbor Intl
United States
Destination: KABQ Albuquerque Intl Sunport
United States
More flights between these airports :: More routes between these airports
Route: FORPE1 FORPE KRKEE KRKEE3
File this flight plan on PilotEdge
Remarks: RMK / SIMBRIEF
Altitude:
(Current/Filed)
37,000ft
Speed:
(Current/Filed)
454kts
Departed: 13-Aug-20 04:42 PM
Arrived: 13-Aug-20 05:33 PM
Distance/Time
Traveled:
285nm/0:51
Distance/Time
To Go:
Arrived

Flight Plot

Page will automatically refresh every two minutes.

Flight plan parsing failed; only flown route is shown


Map Options




Map Legend


Flown Route
Filed Route
Departure Airport
Arrival Airport
Navaid (VOR, NDB)
Fix

Horizontal Profiles

Position Reports

Time Latitude Longitude Heading Altitude Ground
Speed
13-Aug-20 15:47 33.433500 -112.014715 90 1124ft 0kts
13-Aug-20 15:48 33.433500 -112.014715 90 1124ft 0kts
13-Aug-20 15:49 33.433500 -112.014715 90 1124ft 0kts
13-Aug-20 15:50 33.433500 -112.014715 90 1124ft 0kts
13-Aug-20 15:51 33.433500 -112.014715 90 1124ft 0kts
13-Aug-20 15:52 33.433500 -112.014715 90 1124ft 0kts
13-Aug-20 15:53 33.433500 -112.014715 90 1124ft 0kts
13-Aug-20 15:54 33.433500 -112.014715 90 1124ft 0kts
13-Aug-20 15:55 33.433500 -112.014715 90 1124ft 0kts
13-Aug-20 15:55 33.433500 -112.014715 90 1124ft 0kts
13-Aug-20 15:57 33.433500 -112.014715 90 1124ft 0kts
13-Aug-20 15:58 33.433500 -112.014715 90 1124ft 0kts
13-Aug-20 15:58 33.433500 -112.014715 90 1124ft 0kts
13-Aug-20 15:59 33.433500 -112.014715 90 1124ft 0kts
13-Aug-20 16:01 33.433500 -112.014715 90 1124ft 0kts
13-Aug-20 16:01 33.433500 -112.014715 90 1124ft 0kts
13-Aug-20 16:02 33.433500 -112.014715 90 1124ft 0kts
13-Aug-20 16:03 33.433500 -112.014715 90 1124ft 0kts
13-Aug-20 16:04 33.433500 -112.014715 90 1124ft 0kts
13-Aug-20 16:05 33.433500 -112.014715 90 1124ft 0kts
13-Aug-20 16:06 33.433500 -112.014715 90 1124ft 0kts
13-Aug-20 16:07 33.433500 -112.014715 90 1124ft 0kts
13-Aug-20 16:08 33.433500 -112.014715 90 1124ft 0kts
13-Aug-20 16:09 33.433500 -112.014715 90 1124ft 0kts
13-Aug-20 16:10 33.433500 -112.014715 90 1124ft 0kts
13-Aug-20 16:11 33.433500 -112.014715 90 1124ft 0kts
13-Aug-20 16:12 33.433500 -112.014715 90 1124ft 0kts
13-Aug-20 16:13 33.433500 -112.014715 90 1124ft 0kts
13-Aug-20 16:14 33.433500 -112.014715 90 1124ft 0kts
13-Aug-20 16:15 33.433500 -112.014715 90 1124ft 0kts
13-Aug-20 16:16 33.433500 -112.014715 90 1124ft 0kts
13-Aug-20 16:17 33.433500 -112.014715 90 1124ft 0kts
13-Aug-20 16:18 33.433500 -112.014715 90 1124ft 0kts
13-Aug-20 16:19 33.433500 -112.014715 90 1124ft 0kts
13-Aug-20 16:20 33.433500 -112.014715 90 1124ft 0kts
13-Aug-20 16:21 33.433500 -112.014715 90 1124ft 0kts
13-Aug-20 16:22 33.433500 -112.014715 90 1124ft 0kts
13-Aug-20 16:23 33.433500 -112.014715 90 1124ft 0kts
13-Aug-20 16:24 33.433500 -112.014715 90 1124ft 0kts
13-Aug-20 16:25 33.433500 -112.014715 90 1124ft 0kts
13-Aug-20 16:26 33.433500 -112.014715 90 1124ft 0kts
13-Aug-20 16:27 33.433500 -112.014715 90 1124ft 0kts
13-Aug-20 16:28 33.433500 -112.014715 90 1124ft 0kts
13-Aug-20 16:29 33.433500 -112.014715 90 1124ft 0kts
13-Aug-20 16:30 33.433500 -112.014716 90 1124ft 0kts
13-Aug-20 16:31 33.433703 -112.015181 147 1124ft 2kts
13-Aug-20 16:32 33.434208 -112.015203 200 1124ft 0kts
13-Aug-20 16:33 33.434208 -112.015203 200 1124ft 0kts
13-Aug-20 16:34 33.434208 -112.015203 200 1124ft 0kts
13-Aug-20 16:35 33.434208 -112.015203 200 1124ft 0kts
13-Aug-20 16:36 33.433183 -112.015535 166 1123ft 8kts
13-Aug-20 16:37 33.432882 -112.011404 90 1128ft 13kts
13-Aug-20 16:38 33.432127 -112.006562 89 1127ft 15kts
13-Aug-20 16:39 33.432143 -111.999119 89 1125ft 23kts
13-Aug-20 16:40 33.431742 -111.993433 170 1124ft 10kts
13-Aug-20 16:41 33.431086 -111.999159 271 1124ft 84kts
13-Aug-20 16:42 33.431030 -112.050605 274 2595ft 174kts
13-Aug-20 16:43 33.433140 -112.116785 273 4117ft 235kts
13-Aug-20 16:44 33.453113 -112.192259 330 6752ft 260kts
13-Aug-20 16:45 33.527045 -112.195291 4 9499ft 276kts
13-Aug-20 16:46 33.608558 -112.170390 25 10953ft 336kts
13-Aug-20 16:47 33.677794 -112.092094 45 13663ft 348kts
13-Aug-20 16:48 33.741846 -112.003080 66 16054ft 363kts
13-Aug-20 16:49 33.740011 -111.881342 96 18341ft 374kts
13-Aug-20 16:50 33.729003 -111.755662 95 20442ft 384kts
13-Aug-20 16:51 33.718042 -111.626617 95 22391ft 394kts
13-Aug-20 16:52 33.706652 -111.493612 96 24215ft 404kts
13-Aug-20 16:53 33.694858 -111.358010 96 25910ft 413kts
13-Aug-20 16:54 33.703076 -111.220863 67 27493ft 421kts
13-Aug-20 16:55 33.750336 -111.090696 65 28937ft 428kts
13-Aug-20 16:56 33.797539 -110.958602 65 30265ft 435kts
13-Aug-20 16:57 33.845260 -110.823958 65 31448ft 441kts
13-Aug-20 16:58 33.893616 -110.687007 65 32476ft 448kts
13-Aug-20 16:59 33.942368 -110.548257 65 33408ft 454kts
13-Aug-20 17:00 33.991703 -110.407197 65 34250ft 459kts
13-Aug-20 17:01 34.041356 -110.264338 66 35013ft 464kts
13-Aug-20 17:02 34.082615 -110.116249 73 35693ft 469kts
13-Aug-20 17:03 34.119397 -109.965447 72 36496ft 467kts
13-Aug-20 17:04 34.156063 -109.815271 73 37145ft 468kts
13-Aug-20 17:05 34.192517 -109.664167 73 37287ft 468kts
13-Aug-20 17:06 34.228738 -109.513060 73 37297ft 468kts
13-Aug-20 17:07 34.264618 -109.362442 73 37310ft 468kts
13-Aug-20 17:08 34.300355 -109.211043 73 37295ft 468kts
13-Aug-20 17:09 34.335805 -109.060438 74 37271ft 463kts
13-Aug-20 17:10 34.370792 -108.911075 74 37246ft 458kts
13-Aug-20 17:11 34.405632 -108.761956 74 35524ft 466kts
13-Aug-20 17:12 34.439604 -108.614767 74 33755ft 445kts
13-Aug-20 17:13 34.472207 -108.472594 74 31979ft 432kts
13-Aug-20 17:14 34.503182 -108.336831 74 30386ft 419kts
13-Aug-20 17:15 34.533608 -108.202339 74 28732ft 408kts
13-Aug-20 17:16 34.563212 -108.071246 74 27158ft 398kts
13-Aug-20 17:17 34.591922 -107.943314 74 25619ft 389kts
13-Aug-20 17:18 34.620541 -107.819021 69 24122ft 380kts
13-Aug-20 17:19 34.666206 -107.705091 60 22646ft 370kts
13-Aug-20 17:20 34.713604 -107.595489 60 21102ft 364kts
13-Aug-20 17:21 34.760005 -107.487487 60 19610ft 356kts
13-Aug-20 17:22 34.805222 -107.381763 60 18097ft 349kts
13-Aug-20 17:23 34.849512 -107.277637 61 16566ft 342kts
13-Aug-20 17:24 34.891699 -107.174935 65 15155ft 331kts
13-Aug-20 17:25 34.909946 -107.067604 81 13979ft 319kts
13-Aug-20 17:26 34.921885 -106.960468 82 12653ft 321kts
13-Aug-20 17:27 34.896293 -106.860369 113 11173ft 306kts
13-Aug-20 17:28 34.893073 -106.760895 66 8026ft 286kts
13-Aug-20 17:29 34.948941 -106.715690 32 7545ft 245kts
13-Aug-20 17:30 34.994845 -106.664327 43 6115ft 182kts
13-Aug-20 17:31 35.025803 -106.626160 43 5313ft 138kts
13-Aug-20 17:32 35.036598 -106.614622 13 5317ft 17kts
13-Aug-20 17:33 35.041461 -106.613816 0 5317ft 18kts
13-Aug-20 17:34 35.046190 -106.613261 5 5320ft 12kts
13-Aug-20 17:35 35.047025 -106.613999 309 5318ft 0kts
13-Aug-20 17:36 35.047025 -106.613999 309 5318ft 0kts
13-Aug-20 17:37 35.047025 -106.613999 309 5318ft 0kts

Navigation Log

Ident Type
Flight plan parsing failed, navigation log unavailable